createdAt,value
2023-03-14T00:00:53.013Z,1.27
2023-03-14T00:03:19.666Z,1.17
2023-03-14T00:05:46.321Z,1.25
2023-03-14T00:08:13.269Z,1.30
2023-03-14T00:10:39.877Z,1.19
2023-03-14T00:13:07.849Z,1.36
2023-03-14T00:15:36.813Z,1.31
2023-03-14T00:18:03.634Z,1.21
2023-03-14T00:20:30.272Z,1.33
2023-03-14T00:22:56.893Z,1.34
2023-03-14T00:25:23.522Z,1.24
2023-03-14T00:27:52.899Z,1.28
2023-03-14T00:30:19.851Z,1.43
2023-03-14T00:32:46.620Z,1.32
2023-03-14T00:35:13.275Z,1.31
2023-03-14T00:37:39.937Z,1.41
2023-03-14T00:40:09.733Z,1.32
2023-03-14T00:42:36.549Z,1.28
2023-03-14T00:45:03.390Z,1.37
2023-03-14T00:47:30.030Z,1.29
2023-03-14T00:49:56.654Z,1.24
2023-03-14T00:52:23.232Z,1.36
2023-03-14T00:54:50.957Z,1.38
2023-03-14T00:57:17.557Z,1.36
2023-03-14T00:59:45.545Z,1.40
2023-03-14T01:02:12.198Z,1.47
2023-03-14T01:04:40.479Z,1.41
2023-03-14T01:07:07.150Z,1.37
2023-03-14T01:09:34.080Z,1.50
2023-03-14T01:12:02.142Z,1.41
2023-03-14T01:14:31.274Z,1.34
2023-03-14T01:17:02.938Z,1.43
2023-03-14T01:19:31.108Z,1.41
2023-03-14T01:21:57.712Z,1.37
2023-03-14T01:24:24.332Z,1.49
2023-03-14T01:26:50.960Z,1.58
2023-03-14T01:29:17.585Z,1.52
2023-03-14T01:31:44.307Z,1.53
2023-03-14T01:34:11.267Z,1.60
2023-03-14T01:36:38.046Z,1.58
2023-03-14T01:39:07.075Z,1.54
2023-03-14T01:41:33.986Z,1.58
2023-03-14T01:44:00.843Z,1.55
2023-03-14T01:46:37.540Z,1.51
2023-03-14T01:49:30.462Z,1.59
2023-03-14T01:52:02.023Z,1.51
2023-03-14T01:54:49.127Z,1.51
2023-03-14T01:57:20.733Z,1.61
2023-03-14T01:59:53.811Z,1.57
2023-03-14T02:02:20.866Z,1.48
2023-03-14T02:04:49.098Z,1.52
2023-03-14T02:07:49.566Z,1.55
2023-03-14T02:10:19.648Z,1.52
2023-03-14T02:12:50.386Z,1.53
2023-03-14T02:15:18.386Z,1.61
2023-03-14T02:17:46.525Z,1.55
2023-03-14T02:20:50.228Z,1.52
2023-03-14T02:23:21.625Z,1.55
2023-03-14T02:26:02.106Z,1.46
2023-03-14T02:28:28.745Z,1.41
2023-03-14T02:30:56.569Z,1.46
2023-03-14T02:33:24.388Z,1.40
2023-03-14T02:35:51.040Z,1.36
2023-03-14T02:38:42.622Z,1.36
2023-03-14T02:41:09.542Z,1.31
2023-03-14T02:43:36.461Z,1.29
2023-03-14T02:46:06.346Z,1.25
2023-03-14T02:48:39.563Z,1.22
2023-03-14T02:51:06.512Z,1.17
2023-03-14T02:53:37.269Z,1.15
2023-03-14T02:56:04.561Z,1.16
2023-03-14T02:58:31.426Z,1.14
2023-03-14T03:00:59.580Z,1.07
2023-03-14T03:03:26.284Z,1.08
2023-03-14T03:05:54.925Z,1.12
2023-03-14T03:08:23.408Z,1.06
2023-03-14T03:10:50.682Z,1.04
2023-03-14T03:13:18.149Z,1.06
2023-03-14T03:15:45.921Z,1.02
2023-03-14T03:18:12.744Z,0.98
2023-03-14T03:20:39.658Z,0.92
2023-03-14T03:23:07.868Z,0.89
2023-03-14T03:25:34.554Z,0.90
2023-03-14T03:28:02.669Z,0.82
2023-03-14T03:30:30.473Z,0.76
2023-03-14T03:32:57.280Z,0.68
2023-03-14T03:35:25.090Z,0.62
2023-03-14T03:37:51.702Z,0.55
2023-03-14T03:40:18.405Z,0.56
2023-03-14T03:42:45.025Z,0.50
2023-03-14T03:45:11.725Z,0.41
2023-03-14T03:47:38.324Z,0.36
2023-03-14T03:50:06.800Z,0.25
2023-03-14T03:52:33.584Z,0.17
2023-03-14T03:55:00.242Z,0.22
2023-03-14T03:57:26.874Z,0.18
2023-03-14T03:59:53.494Z,0.17
2023-03-14T04:02:20.128Z,0.21
2023-03-14T04:04:48.660Z,0.25
2023-03-14T04:07:15.921Z,0.20
2023-03-14T04:09:43.015Z,0.21
2023-03-14T04:12:10.902Z,0.21
2023-03-14T04:14:37.961Z,0.18
2023-03-14T04:17:05.080Z,0.18
2023-03-14T04:19:31.746Z,0.24
2023-03-14T04:21:58.423Z,0.21
2023-03-14T04:24:26.394Z,0.19
2023-03-14T04:26:53.260Z,0.19
2023-03-14T04:29:19.958Z,0.19
2023-03-14T04:31:46.610Z,0.15
2023-03-14T04:34:13.270Z,0.11
2023-03-14T04:36:41.198Z,0.09
2023-03-14T04:39:07.889Z,0.07
2023-03-14T04:41:34.545Z,0.05
2023-03-14T04:44:01.137Z,0.11
2023-03-14T04:46:27.805Z,0.04
2023-03-14T04:48:54.514Z,-0.04
2023-03-14T04:51:23.864Z,-0.08
2023-03-14T04:53:50.483Z,-0.14
2023-03-14T04:56:17.122Z,-0.23
2023-03-14T04:58:45.053Z,-0.30
2023-03-14T05:01:11.854Z,-0.28
2023-03-14T05:03:39.170Z,-0.41
2023-03-14T05:06:06.228Z,-0.53
2023-03-14T05:08:32.851Z,-0.55
2023-03-14T05:10:59.769Z,-0.53
2023-03-14T05:13:28.004Z,-0.64
2023-03-14T05:15:56.583Z,-0.75
2023-03-14T05:18:23.208Z,-0.76
2023-03-14T05:20:52.839Z,-0.74
2023-03-14T05:23:19.483Z,-0.82
2023-03-14T05:25:46.242Z,-0.95
2023-03-14T05:28:12.953Z,-1.14
2023-03-14T05:30:39.600Z,-1.09
2023-03-14T05:33:07.545Z,-0.98
2023-03-14T05:35:34.998Z,-0.96
2023-03-14T05:38:03.177Z,-0.92
2023-03-14T05:40:29.821Z,-1.22
2023-03-14T05:42:57.540Z,-1.80
2023-03-14T05:45:24.181Z,-2.01
2023-03-14T05:47:50.792Z,-1.95
2023-03-14T05:50:17.406Z,-1.73
2023-03-14T05:52:44.065Z,-1.97
2023-03-14T05:55:10.755Z,-2.06
2023-03-14T05:57:38.493Z,-1.84
2023-03-14T06:00:05.728Z,-2.07
2023-03-14T06:02:32.665Z,-2.14
2023-03-14T06:04:59.365Z,-1.94
2023-03-14T06:07:26.042Z,-2.10
2023-03-14T06:09:52.632Z,-2.27
2023-03-14T06:12:19.290Z,-2.13
2023-03-14T06:14:45.925Z,-2.04
2023-03-14T06:17:12.924Z,-2.24
2023-03-14T06:19:39.598Z,-2.18
2023-03-14T06:22:06.195Z,-1.95
2023-03-14T06:24:32.843Z,-2.17
2023-03-14T06:26:59.462Z,-2.24
2023-03-14T06:29:26.077Z,-2.30
2023-03-14T06:31:52.699Z,-2.37
2023-03-14T06:34:19.302Z,-2.32
2023-03-14T06:36:45.928Z,-2.25
2023-03-14T06:39:12.534Z,-2.08
2023-03-14T06:41:39.212Z,-2.17
2023-03-14T06:44:07.554Z,-2.31
2023-03-14T06:46:34.219Z,-2.20
2023-03-14T06:49:00.949Z,-2.06
2023-03-14T06:51:27.735Z,-2.21
2023-03-14T06:53:54.359Z,-2.24
2023-03-14T06:56:22.409Z,-2.10
2023-03-14T06:58:50.397Z,-2.13
2023-03-14T07:01:29.259Z,-2.28
2023-03-14T07:03:56.363Z,-2.22
2023-03-14T07:06:23.453Z,-2.00
2023-03-14T07:08:52.095Z,-2.14
2023-03-14T07:11:18.825Z,-2.15
2023-03-14T07:13:45.994Z,-2.04
2023-03-14T07:16:12.776Z,-1.94
2023-03-14T07:18:39.553Z,-2.05
2023-03-14T07:21:09.094Z,-2.09
2023-03-14T07:23:36.047Z,-1.90
2023-03-14T07:26:04.528Z,-1.92
2023-03-14T07:28:31.716Z,-2.05
2023-03-14T07:30:58.419Z,-2.09
2023-03-14T07:33:25.041Z,-2.14
2023-03-14T07:35:51.813Z,-2.09
2023-03-14T07:38:19.857Z,-1.99
2023-03-14T07:40:48.178Z,-1.96
2023-03-14T07:43:14.797Z,-1.92
2023-03-14T07:45:43.211Z,-1.68
2023-03-14T07:48:10.028Z,-1.69
2023-03-14T07:50:36.649Z,-1.64
2023-03-14T07:53:03.329Z,-1.33
2023-03-14T07:55:30.029Z,-1.34
2023-03-14T07:57:56.717Z,-1.33
2023-03-14T08:00:23.570Z,-1.08
2023-03-14T08:02:50.272Z,-1.05
2023-03-14T08:05:17.024Z,-1.13
2023-03-14T08:07:43.646Z,-1.00
2023-03-14T08:10:10.974Z,-0.84
2023-03-14T08:12:37.965Z,-0.98
2023-03-14T08:15:05.864Z,-0.94
2023-03-14T08:17:34.092Z,-0.78
2023-03-14T08:20:00.705Z,-0.97
2023-03-14T08:22:28.680Z,-0.97
2023-03-14T08:24:55.390Z,-0.74
2023-03-14T08:27:22.081Z,-0.80
2023-03-14T08:29:48.723Z,-0.88
2023-03-14T08:32:15.430Z,-0.78
2023-03-14T08:34:43.325Z,-0.60
2023-03-14T08:37:19.998Z,-0.76
2023-03-14T08:39:53.020Z,-0.66
2023-03-14T08:42:19.672Z,-0.63
2023-03-14T08:44:46.571Z,-0.72
2023-03-14T08:47:14.676Z,-0.63
2023-03-14T08:49:41.511Z,-0.40
2023-03-14T08:52:08.243Z,-0.25
2023-03-14T08:54:34.988Z,-0.15
2023-03-14T08:57:01.749Z,-0.07
2023-03-14T08:59:29.619Z,0.01
2023-03-14T09:01:56.313Z,0.03
2023-03-14T09:04:23.273Z,0.10
2023-03-14T09:06:50.020Z,0.20
2023-03-14T09:09:16.658Z,0.30
2023-03-14T09:11:44.395Z,0.40
2023-03-14T09:14:11.433Z,0.44
2023-03-14T09:16:39.572Z,0.55
2023-03-14T09:19:06.775Z,0.59
2023-03-14T09:21:33.839Z,0.64
2023-03-14T09:24:00.475Z,0.67
2023-03-14T09:26:27.117Z,0.69
2023-03-14T09:28:53.740Z,0.76
2023-03-14T09:31:20.599Z,0.81
2023-03-14T09:33:47.324Z,0.87
2023-03-14T09:36:13.970Z,0.84
2023-03-14T09:38:40.626Z,0.83
2023-03-14T09:41:18.867Z,0.83
2023-03-14T09:43:47.646Z,0.89
2023-03-14T09:46:15.181Z,0.91
2023-03-14T09:48:42.592Z,0.93
2023-03-14T09:51:15.922Z,0.92
2023-03-14T09:53:48.125Z,0.94
2023-03-14T09:56:19.946Z,0.94
2023-03-14T09:58:51.998Z,0.90
2023-03-14T10:01:25.604Z,0.83
2023-03-14T10:03:57.337Z,0.77
2023-03-14T10:06:28.398Z,0.86
2023-03-14T10:08:56.274Z,0.84
2023-03-14T10:11:22.908Z,0.83
2023-03-14T10:14:07.227Z,0.81
2023-03-14T10:16:42.046Z,0.84
2023-03-14T10:19:13.989Z,0.75
2023-03-14T10:21:50.578Z,0.76
2023-03-14T10:24:23.401Z,0.78
2023-03-14T10:27:02.421Z,0.83
2023-03-14T10:29:33.603Z,0.78
2023-03-14T10:32:01.934Z,0.79
2023-03-14T10:34:36.539Z,0.80
2023-03-14T10:37:28.802Z,0.79
2023-03-14T10:39:59.699Z,0.75
2023-03-14T10:42:33.034Z,0.79
2023-03-14T10:45:02.586Z,0.83
2023-03-14T10:47:29.777Z,0.87
2023-03-14T10:49:57.784Z,0.88
2023-03-14T10:52:45.706Z,0.92
2023-03-14T10:55:14.920Z,0.92
2023-03-14T10:57:45.098Z,0.96
2023-03-14T11:00:20.253Z,0.98
2023-03-14T11:03:12.605Z,1.01
2023-03-14T11:05:55.167Z,1.04
2023-03-14T11:08:40.449Z,0.99
2023-03-14T11:11:25.688Z,1.01
2023-03-14T11:14:01.685Z,1.08
2023-03-14T11:16:48.433Z,1.08
2023-03-14T11:19:42.876Z,1.18
2023-03-14T11:22:30.426Z,1.15
2023-03-14T11:25:06.083Z,1.16
2023-03-14T11:27:44.746Z,1.26
2023-03-14T11:30:30.785Z,1.31
2023-03-14T11:33:14.135Z,1.29
2023-03-14T11:35:54.897Z,1.38
2023-03-14T11:38:24.141Z,1.40
2023-03-14T11:40:52.849Z,1.39
2023-03-14T11:43:31.829Z,1.44
2023-03-14T11:46:22.889Z,1.47
2023-03-14T11:49:10.950Z,1.45
2023-03-14T11:51:40.502Z,1.47
2023-03-14T11:54:16.013Z,1.63
2023-03-14T11:56:51.903Z,1.67
2023-03-14T11:59:24.242Z,1.66
2023-03-14T12:02:06.623Z,1.60
2023-03-14T12:05:00.268Z,1.66
2023-03-14T12:07:53.222Z,1.73
2023-03-14T12:10:20.121Z,1.83
2023-03-14T12:12:49.416Z,1.89
2023-03-14T12:15:23.810Z,1.91
2023-03-14T12:17:58.013Z,1.96
2023-03-14T12:20:26.813Z,1.99
2023-03-14T12:23:11.780Z,1.99
2023-03-14T12:25:38.558Z,2.04
2023-03-14T12:28:31.944Z,2.11
2023-03-14T12:31:33.650Z,2.06
2023-03-14T12:34:12.501Z,2.04
2023-03-14T12:36:51.373Z,2.03
2023-03-14T12:39:49.092Z,2.02
2023-03-14T12:42:44.012Z,1.99
2023-03-14T12:45:25.318Z,2.02
2023-03-14T12:48:04.393Z,1.97
2023-03-14T12:50:42.791Z,1.99
2023-03-14T12:53:46.712Z,2.07
2023-03-14T12:56:27.704Z,2.00
2023-03-14T12:59:21.933Z,1.49
2023-03-14T13:01:58.114Z,1.41
2023-03-14T13:04:39.595Z,1.70
2023-03-14T13:07:13.920Z,1.63
2023-03-14T13:10:05.362Z,1.35
2023-03-14T13:13:09.208Z,1.62
2023-03-14T13:15:43.039Z,1.62
2023-03-14T13:18:17.929Z,1.32
2023-03-14T13:20:54.970Z,1.43
2023-03-14T13:23:30.125Z,1.45
2023-03-14T13:25:57.763Z,1.31
2023-03-14T13:28:24.653Z,1.49
2023-03-14T13:30:55.879Z,1.49
2023-03-14T13:33:25.905Z,1.32
2023-03-14T13:36:01.267Z,1.48
2023-03-14T13:38:30.401Z,1.52
2023-03-14T13:41:02.565Z,1.42
2023-03-14T13:43:40.250Z,1.65
2023-03-14T13:46:14.951Z,1.66
2023-03-14T13:48:48.414Z,1.54
2023-03-14T13:51:19.003Z,1.82
2023-03-14T13:53:46.689Z,1.71
2023-03-14T13:56:14.033Z,1.63
2023-03-14T13:58:42.194Z,1.87
2023-03-14T14:01:19.201Z,1.64
2023-03-14T14:03:54.341Z,1.56
2023-03-14T14:06:24.758Z,1.84
2023-03-14T14:08:51.719Z,1.66
2023-03-14T14:11:42.640Z,1.60
2023-03-14T14:14:29.728Z,1.78
2023-03-14T14:17:00.765Z,1.56
2023-03-14T14:19:31.132Z,1.58
2023-03-14T14:21:58.649Z,1.67
2023-03-14T14:24:29.090Z,1.43
2023-03-14T14:27:01.381Z,1.51
2023-03-14T14:29:31.320Z,1.56
2023-03-14T14:32:12.310Z,1.37
2023-03-14T14:34:58.780Z,1.45
2023-03-14T14:37:29.155Z,1.53
2023-03-14T14:39:59.713Z,1.30
2023-03-14T14:42:32.034Z,1.43
2023-03-14T14:45:00.798Z,1.48
2023-03-14T14:47:29.949Z,1.27
2023-03-14T14:50:01.402Z,1.36
2023-03-14T14:52:45.501Z,1.39
2023-03-14T14:55:19.225Z,1.20
2023-03-14T14:57:54.440Z,1.36
2023-03-14T15:00:25.177Z,1.36
2023-03-14T15:02:55.701Z,1.21
2023-03-14T15:05:25.377Z,1.36
2023-03-14T15:07:52.238Z,1.38
2023-03-14T15:10:22.648Z,1.17
2023-03-14T15:12:49.599Z,1.26
2023-03-14T15:15:19.235Z,1.36
2023-03-14T15:17:46.514Z,1.13
2023-03-14T15:20:16.269Z,1.17
2023-03-14T15:22:44.176Z,1.33
2023-03-14T15:25:26.686Z,1.10
2023-03-14T15:27:59.227Z,1.07
2023-03-14T15:30:26.022Z,1.26
2023-03-14T15:32:52.643Z,0.98
2023-03-14T15:35:19.362Z,0.97
2023-03-14T15:37:46.342Z,1.24
2023-03-14T15:40:16.249Z,0.96
2023-03-14T15:42:43.260Z,0.82
2023-03-14T15:45:10.426Z,1.06
2023-03-14T15:47:38.286Z,0.93
2023-03-14T15:50:05.302Z,0.71
2023-03-14T15:52:31.941Z,0.78
2023-03-14T15:54:59.556Z,0.89
2023-03-14T15:57:26.236Z,0.67
2023-03-14T15:59:53.044Z,0.70
2023-03-14T16:02:19.708Z,0.87
2023-03-14T16:04:46.715Z,0.66
2023-03-14T16:07:13.411Z,0.58
2023-03-14T16:09:41.281Z,0.82
2023-03-14T16:12:09.757Z,0.58
2023-03-14T16:14:36.874Z,0.43
2023-03-14T16:17:03.543Z,0.63
2023-03-14T16:19:31.954Z,0.47
2023-03-14T16:21:58.607Z,0.24
2023-03-14T16:24:25.227Z,0.27
2023-03-14T16:26:53.289Z,0.37
2023-03-14T16:29:21.442Z,0.20
2023-03-14T16:31:48.102Z,0.06
2023-03-14T16:34:14.829Z,0.23
2023-03-14T16:36:41.418Z,0.05
2023-03-14T16:39:08.068Z,-0.02
2023-03-14T16:41:36.403Z,0.15
2023-03-14T16:44:04.523Z,-0.06
2023-03-14T16:46:31.301Z,-0.03
2023-03-14T16:48:58.065Z,0.05
2023-03-14T16:51:25.353Z,-0.10
2023-03-14T16:53:52.094Z,-0.04
2023-03-14T16:56:18.752Z,0.06
2023-03-14T16:58:45.533Z,-0.20
2023-03-14T17:01:14.536Z,-0.12
2023-03-14T17:03:45.211Z,-0.09
2023-03-14T17:06:17.594Z,-0.26
2023-03-14T17:08:44.413Z,-0.15
2023-03-14T17:11:11.470Z,-0.20
2023-03-14T17:13:39.197Z,-0.43
2023-03-14T17:16:07.401Z,-0.28
2023-03-14T17:18:34.776Z,-0.32
2023-03-14T17:21:02.156Z,-0.51
2023-03-14T17:23:32.226Z,-0.37
2023-03-14T17:25:59.281Z,-0.51
2023-03-14T17:28:28.844Z,-0.62
2023-03-14T17:31:02.471Z,-0.41
2023-03-14T17:33:29.753Z,-0.58
2023-03-14T17:35:56.509Z,-0.71
2023-03-14T17:38:23.164Z,-0.55
2023-03-14T17:40:51.923Z,-0.72
2023-03-14T17:43:19.176Z,-0.84
2023-03-14T17:45:46.170Z,-0.62
2023-03-14T17:48:13.224Z,-0.80
2023-03-14T17:50:39.979Z,-0.87
2023-03-14T17:53:06.601Z,-0.66
2023-03-14T17:55:33.649Z,-0.82
2023-03-14T17:58:02.695Z,-0.94
2023-03-14T18:00:29.391Z,-0.77
2023-03-14T18:02:58.554Z,-0.98
2023-03-14T18:05:28.028Z,-1.07
2023-03-14T18:07:54.665Z,-0.86
2023-03-14T18:10:21.978Z,-1.16
2023-03-14T18:12:49.749Z,-1.25
2023-03-14T18:15:16.880Z,-1.02
2023-03-14T18:17:43.525Z,-1.27
2023-03-14T18:20:14.768Z,-1.22
2023-03-14T18:22:42.201Z,-1.12
2023-03-14T18:25:10.409Z,-1.33
2023-03-14T18:27:38.978Z,-1.30
2023-03-14T18:30:06.113Z,-1.16
2023-03-14T18:32:32.878Z,-1.39
2023-03-14T18:34:59.581Z,-1.36
2023-03-14T18:37:26.702Z,-1.24
2023-03-14T18:39:53.322Z,-1.51
2023-03-14T18:42:19.914Z,-1.44
2023-03-14T18:44:46.548Z,-1.42
2023-03-14T18:47:13.254Z,-1.62
2023-03-14T18:49:40.742Z,-1.58
2023-03-14T18:52:09.009Z,-1.52
2023-03-14T18:54:35.686Z,-1.78
2023-03-14T18:57:02.343Z,-1.65
2023-03-14T18:59:29.055Z,-1.71
2023-03-14T19:01:55.822Z,-1.98
2023-03-14T19:04:22.978Z,-1.86
2023-03-14T19:06:49.656Z,-1.86
2023-03-14T19:09:16.599Z,-2.13
2023-03-14T19:11:43.715Z,-2.10
2023-03-14T19:14:12.267Z,-2.09
2023-03-14T19:16:38.899Z,-2.26
2023-03-14T19:19:05.610Z,-2.18
2023-03-14T19:21:35.102Z,-2.16
2023-03-14T19:24:04.169Z,-2.28
2023-03-14T19:26:33.846Z,-2.23
2023-03-14T19:29:02.007Z,-2.21
2023-03-14T19:31:28.795Z,-2.41
2023-03-14T19:33:55.583Z,-2.30
2023-03-14T19:36:25.610Z,-2.31
2023-03-14T19:38:53.543Z,-2.47
2023-03-14T19:41:23.777Z,-2.47
2023-03-14T19:43:51.980Z,-2.49
2023-03-14T19:46:18.913Z,-2.72
2023-03-14T19:48:45.910Z,-2.63
2023-03-14T19:51:14.272Z,-2.56
2023-03-14T19:53:42.217Z,-2.73
2023-03-14T19:56:10.414Z,-2.74
2023-03-14T19:58:40.088Z,-2.71
2023-03-14T20:01:08.117Z,-2.88
2023-03-14T20:03:37.812Z,-2.87
2023-03-14T20:06:06.095Z,-2.79
2023-03-14T20:08:32.841Z,-3.01
2023-03-14T20:10:59.559Z,-3.02
2023-03-14T20:13:27.306Z,-2.83
2023-03-14T20:15:55.582Z,-3.04
2023-03-14T20:18:24.935Z,-3.07
2023-03-14T20:20:53.431Z,-2.97
2023-03-14T20:23:20.100Z,-3.22
2023-03-14T20:25:55.141Z,-3.38
2023-03-14T20:28:23.329Z,-3.24
2023-03-14T20:30:50.333Z,-3.38
2023-03-14T20:33:19.749Z,-3.73
2023-03-14T20:35:54.077Z,-3.67
2023-03-14T20:38:20.598Z,-3.71
2023-03-14T20:40:47.497Z,-3.72
2023-03-14T20:43:15.836Z,-3.71
2023-03-14T20:45:42.549Z,-3.59
2023-03-14T20:48:10.266Z,-3.85
2023-03-14T20:50:36.987Z,-3.85
2023-03-14T20:53:05.301Z,-3.94
2023-03-14T20:55:31.949Z,-4.26
2023-03-14T20:57:59.288Z,-4.15
2023-03-14T21:00:25.906Z,-4.05
2023-03-14T21:02:54.266Z,-4.05
2023-03-14T21:05:22.516Z,-4.12
2023-03-14T21:07:49.272Z,-4.08
2023-03-14T21:10:16.483Z,-4.21
2023-03-14T21:12:43.140Z,-4.39
2023-03-14T21:15:14.631Z,-4.24
2023-03-14T21:17:42.114Z,-4.38
2023-03-14T21:20:11.040Z,-4.92
2023-03-14T21:22:37.980Z,-4.86
2023-03-14T21:25:06.101Z,-4.75
2023-03-14T21:27:33.705Z,-4.88
2023-03-14T21:30:00.342Z,-4.81
2023-03-14T21:32:26.999Z,-4.69
2023-03-14T21:34:53.713Z,-5.13
2023-03-14T21:37:21.376Z,-5.48
2023-03-14T21:39:48.077Z,-5.30
2023-03-14T21:42:14.702Z,-5.27
2023-03-14T21:44:46.996Z,-5.20
2023-03-14T21:47:13.592Z,-5.34
2023-03-14T21:49:41.624Z,-5.35
2023-03-14T21:52:11.169Z,-5.51
2023-03-14T21:54:37.872Z,-5.71
2023-03-14T21:57:06.407Z,-5.80
2023-03-14T21:59:35.397Z,-6.04
2023-03-14T22:02:03.839Z,-6.33
2023-03-14T22:04:37.433Z,-6.32
2023-03-14T22:07:10.346Z,-6.24
2023-03-14T22:09:39.932Z,-6.63
2023-03-14T22:12:07.274Z,-6.63
2023-03-14T22:14:35.051Z,-6.28
2023-03-14T22:17:02.890Z,-6.05
2023-03-14T22:19:31.195Z,-6.45
2023-03-14T22:21:58.438Z,-6.72
2023-03-14T22:24:26.431Z,-6.67
2023-03-14T22:26:54.716Z,-6.44
2023-03-14T22:29:22.983Z,-6.29
2023-03-14T22:31:49.803Z,-6.21
2023-03-14T22:34:16.538Z,-6.24
2023-03-14T22:36:43.137Z,-6.13
2023-03-14T22:39:09.803Z,-5.97
2023-03-14T22:41:36.637Z,-5.90
2023-03-14T22:44:03.747Z,-6.05
2023-03-14T22:46:30.511Z,-6.06
2023-03-14T22:48:57.143Z,-5.94
2023-03-14T22:51:23.744Z,-5.92
2023-03-14T22:53:51.774Z,-6.05
2023-03-14T22:56:18.364Z,-6.34
2023-03-14T22:58:46.015Z,-6.28
2023-03-14T23:01:13.494Z,-6.42
2023-03-14T23:03:40.305Z,-6.57
2023-03-14T23:06:07.149Z,-6.37
2023-03-14T23:08:34.429Z,-6.21
2023-03-14T23:11:03.046Z,-6.25
2023-03-14T23:13:30.806Z,-6.83
2023-03-14T23:15:58.421Z,-6.82
2023-03-14T23:18:27.589Z,-7.18
2023-03-14T23:21:05.829Z,-7.63
2023-03-14T23:23:36.201Z,-7.30
2023-03-14T23:26:05.902Z,-7.25
2023-03-14T23:28:32.698Z,-7.39
2023-03-14T23:31:01.650Z,-7.71
2023-03-14T23:33:29.203Z,-7.49
2023-03-14T23:35:55.870Z,-7.34
2023-03-14T23:38:25.892Z,-7.77
2023-03-14T23:40:53.742Z,-7.67
2023-03-14T23:43:22.274Z,-7.89
2023-03-14T23:45:50.263Z,-7.88
2023-03-14T23:48:16.906Z,-7.63
2023-03-14T23:50:44.994Z,-7.86
2023-03-14T23:53:11.910Z,-7.83
2023-03-14T23:55:39.866Z,-7.64
2023-03-14T23:58:06.540Z,-7.51
